Etusivu
METAR-TAF:

METAR-TAF

Lentoasemat :

Kufra, Libya

Leveyspiiri: 24-13N, Pituuspiiri: 023-18E, korkeus merenpinnasta: 417 m

METAR: puuttuu

Aika: 19:29 (17:29 UTC)

Sääennuste

Tämä raportti tehtiin 6 tuntia ja 29 minuuttia sitten, kello 11.00 UTC
Ennuste voimassa 24. päivästä klo 12 UTC - 25. päivään klo 12 UTC
Tuuli 15 kn idästä
Näkyvyys: 7000 m
Todennäköisyys 30% :
Ajoittain
24. päivästä klo 12 UTC - 24. päivään klo 18 UTC
Näkyvyys: 3000 m
hiekkatuisku,

TAF: HLKF 241100Z 2412/2512 08015KT 7000 NSC PROB30 TEMPO 2412/2418 3000 BLSA

Säähavainnot ja -ennusteet yli 4000 lentoasemalta (METAR- ja TAF-raportit).

Käytössä olevat sääasemat on merkitty karttaan keltaisilla ja punaisilla pisteillä.

Aseta hiiri pisteen päälle nähdäksesi sääaseman nimen.

Klikkaa sitten nähdäksesi säähavainnot ja -ennusteet.

Kartan vaihtaminen: klikkaa mustalla rastilla varustettuja vihreitä pisteitä, niin voit zoomata sisään; viivalla varustettua vihreää pistettä, niin voit zoomata ulos tai vihreitä nuolia, niin pääset viereisille kartoille.


METAR-TAF: